»·PEaware :: N912NB KEGE-KAPA

N912NB :: KEGE-KAPA

FLIGHT INFORMATION

Flight Status: Arrived
Operator: Privately registered:
United States
More flights under this callsign
Pilot: Patricio R. (14780)
Aircraft: BOEING 737-200
(B732)
More flights by this aircraft type
Origin: KEGE Eagle Co Regl
United States
Destination: KAPA Centennial
United States
More flights between these airports :: More routes between these airports
Route: +GYPSM6 RLG TOMSN6
File this flight plan on PilotEdge
Remarks: PBN / A1B2 DOF / 180819 REG / N275SB OPR / XXX RMK / TCAS SIMBRIEF
Altitude:
(Current/Filed)
29,000ft
Speed:
(Current/Filed)
446kts
Departed: 18-Aug-18 05:29 PM
Arrived: 18-Aug-18 06:06 PM
Distance/Time
Traveled:
96nm/0:37
Distance/Time
To Go:
Arrived

Flight Plot

Page will automatically refresh every two minutes.

Flight plan parsing failed; only flown route is shown


Map Options




Map Legend


Flown Route
Filed Route
Departure Airport
Arrival Airport
Navaid (VOR, NDB)
Fix

Horizontal Profiles

Position Reports

Time Latitude Longitude Heading Altitude Ground
Speed
18-Aug-18 17:16 39.641381 -106.908352 262 6554ft 0kts
18-Aug-18 17:17 39.641381 -106.908352 262 6554ft 0kts
18-Aug-18 17:18 39.641381 -106.908352 262 6554ft 0kts
18-Aug-18 17:19 39.641381 -106.908352 262 6554ft 0kts
18-Aug-18 17:20 39.641381 -106.908352 262 6554ft 0kts
18-Aug-18 17:21 39.641381 -106.908352 262 6554ft 0kts
18-Aug-18 17:22 39.641381 -106.908352 262 6554ft 0kts
18-Aug-18 17:23 39.641381 -106.908352 262 6554ft 0kts
18-Aug-18 17:24 39.641381 -106.908352 262 6554ft 0kts
18-Aug-18 17:25 39.641381 -106.908352 262 6554ft 0kts
18-Aug-18 17:26 39.641397 -106.908625 287 6554ft 3kts
18-Aug-18 17:27 39.641951 -106.908196 52 6554ft 4kts
18-Aug-18 17:28 39.642909 -106.905270 81 6554ft 20kts
18-Aug-18 17:29 39.644301 -106.903173 262 6554ft 25kts
18-Aug-18 17:30 39.639227 -106.945473 254 7184ft 166kts
18-Aug-18 17:31 39.613698 -106.998867 284 8406ft 189kts
18-Aug-18 17:32 39.663553 -107.013609 11 9962ft 230kts
18-Aug-18 17:33 39.729893 -107.005243 343 11874ft 246kts
18-Aug-18 17:34 39.800320 -106.999704 36 13129ft 299kts
18-Aug-18 17:35 39.839654 -106.899942 63 14923ft 323kts
18-Aug-18 17:36 39.877393 -106.792266 62 16704ft 334kts
18-Aug-18 17:37 39.917309 -106.680815 61 18312ft 345kts
18-Aug-18 17:38 39.958446 -106.566445 61 19839ft 354kts
18-Aug-18 17:39 40.000661 -106.448952 61 21214ft 362kts
18-Aug-18 17:40 40.070792 -106.361628 29 22442ft 357kts
18-Aug-18 17:41 40.150944 -106.283021 33 23565ft 366kts
18-Aug-18 17:42 40.231399 -106.199060 34 24496ft 376kts
18-Aug-18 17:43 40.314088 -106.112602 34 25364ft 385kts
18-Aug-18 17:44 40.401289 -106.022300 34 25382ft 413kts
18-Aug-18 17:45 40.486109 -105.934082 34 24527ft 377kts
18-Aug-18 17:46 40.548754 -105.829293 84 24406ft 392kts
18-Aug-18 17:47 40.524497 -105.694056 99 22922ft 398kts
18-Aug-18 17:48 40.515220 -105.555225 91 21589ft 376kts
18-Aug-18 17:49 40.495491 -105.425529 133 19929ft 364kts
18-Aug-18 17:50 40.406521 -105.379300 169 19191ft 348kts
18-Aug-18 17:51 40.313137 -105.345228 158 18627ft 349kts
18-Aug-18 17:52 40.232309 -105.276109 142 16951ft 346kts
18-Aug-18 17:53 40.160681 -105.194645 139 15303ft 341kts
18-Aug-18 17:54 40.092011 -105.111522 138 13738ft 335kts
18-Aug-18 17:55 40.025274 -105.029728 138 12339ft 324kts
18-Aug-18 17:56 39.961147 -104.951047 137 11023ft 313kts
18-Aug-18 17:57 39.899092 -104.875060 137 10975ft 290kts
18-Aug-18 17:58 39.829011 -104.847264 187 9930ft 277kts
18-Aug-18 17:59 39.753248 -104.857027 187 8647ft 274kts
18-Aug-18 18:00 39.679869 -104.869218 187 7967ft 247kts
18-Aug-18 18:01 39.619118 -104.880660 187 8026ft 207kts
18-Aug-18 18:02 39.562874 -104.902240 198 7965ft 196kts
18-Aug-18 18:03 39.515061 -104.919520 164 7892ft 171kts
18-Aug-18 18:04 39.501235 -104.870765 69 7413ft 147kts
18-Aug-18 18:05 39.535548 -104.849129 358 6308ft 149kts
18-Aug-18 18:06 39.573417 -104.850983 358 5838ft 95kts
18-Aug-18 18:07 39.584117 -104.849880 87 5785ft 13kts
18-Aug-18 18:08 39.583283 -104.849265 177 5791ft 0kts

Navigation Log

Ident Type
Flight plan parsing failed, navigation log unavailable